createdAt,value
2023-04-16T00:02:15.167Z,59.25
2023-04-16T00:04:42.769Z,59.41
2023-04-16T00:07:10.026Z,59.22
2023-04-16T00:09:37.111Z,59.45
2023-04-16T00:12:05.096Z,59.74
2023-04-16T00:14:32.659Z,59.93
2023-04-16T00:16:59.909Z,59.88
2023-04-16T00:19:27.108Z,59.83
2023-04-16T00:21:54.345Z,60.47
2023-04-16T00:24:21.368Z,60.33
2023-04-16T00:26:48.513Z,60.61
2023-04-16T00:29:15.752Z,61.29
2023-04-16T00:31:43.100Z,61.64
2023-04-16T00:34:10.288Z,62.08
2023-04-16T00:36:37.407Z,62.47
2023-04-16T00:39:05.595Z,62.68
2023-04-16T00:41:32.850Z,63.09
2023-04-16T00:44:00.251Z,63.23
2023-04-16T00:46:27.859Z,63.55
2023-04-16T00:48:56.156Z,63.93
2023-04-16T00:51:23.670Z,63.76
2023-04-16T00:53:50.999Z,64.29
2023-04-16T00:56:18.300Z,64.47
2023-04-16T00:58:46.257Z,64.38
2023-04-16T01:01:14.679Z,64.05
2023-04-16T01:03:47.257Z,64.32
2023-04-16T01:06:16.797Z,64.30
2023-04-16T01:08:45.603Z,64.25
2023-04-16T01:11:14.148Z,64.27
2023-04-16T01:13:42.221Z,64.15
2023-04-16T01:16:11.354Z,63.86
2023-04-16T01:18:39.368Z,64.50
2023-04-16T01:21:07.181Z,64.46
2023-04-16T01:23:34.508Z,64.69
2023-04-16T01:26:03.073Z,64.24
2023-04-16T01:28:30.242Z,64.63
2023-04-16T01:30:57.500Z,64.38
2023-04-16T01:33:46.335Z,64.64
2023-04-16T01:36:13.765Z,64.80
2023-04-16T01:38:40.895Z,64.83
2023-04-16T01:41:08.316Z,64.22
2023-04-16T01:43:37.222Z,63.93
2023-04-16T01:46:28.071Z,64.21
2023-04-16T01:48:55.876Z,64.26
2023-04-16T01:51:24.140Z,64.76
2023-04-16T01:53:51.548Z,64.82
2023-04-16T01:56:19.216Z,64.68
2023-04-16T01:58:47.604Z,65.22
2023-04-16T02:01:16.782Z,64.76
2023-04-16T02:03:45.768Z,64.73
2023-04-16T02:06:13.526Z,64.95
2023-04-16T02:08:41.694Z,64.67
2023-04-16T02:11:09.223Z,64.51
2023-04-16T02:13:37.339Z,64.86
2023-04-16T02:16:06.169Z,65.07
2023-04-16T02:19:07.807Z,65.25
2023-04-16T02:21:36.627Z,65.75
2023-04-16T02:24:03.877Z,65.28
2023-04-16T02:26:31.731Z,65.68
2023-04-16T02:29:05.359Z,65.46
2023-04-16T02:31:39.715Z,64.78
2023-04-16T02:34:09.022Z,64.41
2023-04-16T02:36:36.117Z,64.61
2023-04-16T02:39:03.360Z,64.61
2023-04-16T02:41:30.689Z,64.13
2023-04-16T02:43:58.046Z,64.25
2023-04-16T02:46:25.398Z,64.12
2023-04-16T02:48:52.741Z,64.07
2023-04-16T02:51:20.052Z,63.37
2023-04-16T02:53:47.228Z,63.26
2023-04-16T02:56:14.706Z,63.55
2023-04-16T02:58:42.021Z,63.99
2023-04-16T03:01:09.314Z,64.05
2023-04-16T03:03:36.405Z,64.19
2023-04-16T03:06:04.088Z,64.56
2023-04-16T03:08:31.174Z,64.59
2023-04-16T03:10:58.399Z,64.46
2023-04-16T03:13:25.561Z,65.09
2023-04-16T03:15:52.699Z,65.05
2023-04-16T03:18:19.923Z,65.49
2023-04-16T03:20:54.126Z,65.54
2023-04-16T03:23:21.784Z,65.39
2023-04-16T03:25:48.894Z,65.33
2023-04-16T03:28:18.919Z,65.50
2023-04-16T03:30:52.993Z,65.35
2023-04-16T03:33:21.378Z,65.40
2023-04-16T03:35:56.125Z,65.77
2023-04-16T03:38:26.829Z,65.37
2023-04-16T03:40:56.558Z,65.13
2023-04-16T03:43:23.916Z,65.20
2023-04-16T03:45:51.704Z,64.91
2023-04-16T03:48:22.109Z,64.92
2023-04-16T03:50:49.439Z,64.77
2023-04-16T03:53:19.118Z,64.98
2023-04-16T03:55:51.724Z,63.96
2023-04-16T03:58:20.407Z,65.03
2023-04-16T04:00:48.395Z,64.53
2023-04-16T04:03:18.093Z,63.89
2023-04-16T04:05:47.683Z,63.50
2023-04-16T04:08:18.788Z,63.08
2023-04-16T04:10:46.228Z,62.22
2023-04-16T04:13:14.773Z,61.33
2023-04-16T04:15:42.682Z,60.92
2023-04-16T04:18:09.778Z,60.69
2023-04-16T04:20:41.028Z,60.55
2023-04-16T04:23:08.794Z,59.98
2023-04-16T04:25:36.296Z,60.08
2023-04-16T04:28:03.728Z,59.47
2023-04-16T04:30:30.945Z,59.37
2023-04-16T04:32:58.501Z,59.71
2023-04-16T04:35:26.024Z,59.49
2023-04-16T04:37:53.749Z,59.17
2023-04-16T04:40:21.870Z,58.56
2023-04-16T04:42:49.218Z,58.69
2023-04-16T04:45:16.696Z,57.49
2023-04-16T04:47:43.993Z,57.84
2023-04-16T04:50:11.411Z,57.44
2023-04-16T04:52:39.300Z,57.14
2023-04-16T04:55:07.940Z,57.58
2023-04-16T04:57:36.039Z,56.92
2023-04-16T05:00:06.480Z,57.32
2023-04-16T05:02:41.986Z,56.98
2023-04-16T05:05:09.533Z,55.73
2023-04-16T05:07:37.003Z,56.59
2023-04-16T05:10:04.264Z,56.20
2023-04-16T05:12:32.295Z,56.30
2023-04-16T05:14:59.416Z,54.29
2023-04-16T05:17:26.627Z,54.87
2023-04-16T05:19:53.854Z,55.02
2023-04-16T05:22:21.205Z,54.66
2023-04-16T05:24:48.356Z,54.07
2023-04-16T05:27:15.927Z,54.07
2023-04-16T05:29:43.475Z,54.81
2023-04-16T05:32:10.565Z,55.16
2023-04-16T05:34:37.987Z,54.34
2023-04-16T05:37:05.121Z,53.73
2023-04-16T05:39:32.283Z,54.27
2023-04-16T05:41:59.432Z,53.85
2023-04-16T05:44:27.082Z,52.67
2023-04-16T05:46:54.322Z,52.57
2023-04-16T05:49:22.470Z,52.96
2023-04-16T05:51:50.886Z,52.65
2023-04-16T05:54:18.597Z,52.26
2023-04-16T05:56:45.769Z,53.79
2023-04-16T05:59:13.095Z,53.78
2023-04-16T06:01:40.506Z,53.75
2023-04-16T06:04:07.717Z,52.30
2023-04-16T06:06:35.029Z,51.33
2023-04-16T06:09:02.191Z,51.12
2023-04-16T06:11:30.800Z,49.94
2023-04-16T06:13:58.022Z,50.94
2023-04-16T06:16:25.463Z,50.36
2023-04-16T06:18:53.353Z,50.13
2023-04-16T06:21:20.868Z,50.26
2023-04-16T06:23:47.934Z,49.23
2023-04-16T06:26:14.964Z,49.71
2023-04-16T06:28:42.224Z,49.90
2023-04-16T06:31:09.328Z,47.94
2023-04-16T06:33:36.669Z,49.43
2023-04-16T06:36:03.849Z,50.62
2023-04-16T06:38:31.085Z,48.28
2023-04-16T06:40:59.672Z,48.15
2023-04-16T06:43:27.109Z,48.68
2023-04-16T06:45:55.805Z,48.56
2023-04-16T06:48:23.040Z,49.10
2023-04-16T06:50:50.374Z,49.02
2023-04-16T06:53:17.838Z,48.78
2023-04-16T06:55:44.984Z,48.56
2023-04-16T06:58:13.522Z,48.00
2023-04-16T07:00:40.695Z,47.49
2023-04-16T07:03:07.946Z,49.22
2023-04-16T07:05:35.219Z,48.87
2023-04-16T07:08:02.487Z,47.23
2023-04-16T07:10:29.701Z,48.53
2023-04-16T07:12:56.865Z,47.99
2023-04-16T07:15:24.018Z,48.19
2023-04-16T07:17:51.553Z,48.09
2023-04-16T07:20:18.707Z,47.66
2023-04-16T07:22:46.046Z,46.60
2023-04-16T07:25:13.118Z,48.58
2023-04-16T07:27:40.235Z,47.06
2023-04-16T07:30:08.252Z,47.96
2023-04-16T07:32:35.702Z,48.28
2023-04-16T07:35:04.014Z,48.26
2023-04-16T07:37:32.400Z,48.46
2023-04-16T07:40:00.968Z,46.41
2023-04-16T07:42:31.371Z,46.88
2023-04-16T07:44:58.460Z,46.82
2023-04-16T07:47:26.757Z,46.20
2023-04-16T07:49:53.962Z,42.83
2023-04-16T07:52:21.350Z,42.65
2023-04-16T07:54:48.502Z,41.59
2023-04-16T07:57:16.590Z,42.66
2023-04-16T07:59:44.021Z,42.08
2023-04-16T08:02:15.619Z,41.85
2023-04-16T08:04:44.018Z,44.72
2023-04-16T08:07:11.308Z,42.80
2023-04-16T08:09:58.398Z,44.20
2023-04-16T08:12:25.647Z,43.15
2023-04-16T08:14:52.949Z,42.08
2023-04-16T08:17:20.135Z,39.58
2023-04-16T08:19:47.412Z,41.09
2023-04-16T08:22:14.747Z,40.45
2023-04-16T08:24:42.135Z,40.50
2023-04-16T08:27:18.555Z,43.22
2023-04-16T08:29:48.174Z,42.80
2023-04-16T08:32:15.409Z,43.10
2023-04-16T08:34:42.705Z,41.13
2023-04-16T08:37:10.602Z,41.35
2023-04-16T08:39:37.929Z,38.20
2023-04-16T08:42:06.159Z,38.27
2023-04-16T08:44:37.648Z,38.00
2023-04-16T08:47:09.565Z,39.84
2023-04-16T08:49:39.811Z,41.22
2023-04-16T08:52:10.196Z,40.90
2023-04-16T08:55:06.355Z,38.02
2023-04-16T08:57:43.721Z,39.49
2023-04-16T09:00:13.781Z,39.20
2023-04-16T09:02:41.580Z,40.09
2023-04-16T09:05:14.489Z,40.04
2023-04-16T09:07:42.357Z,40.23
2023-04-16T09:10:10.916Z,38.14
2023-04-16T09:12:38.550Z,37.10
2023-04-16T09:15:06.653Z,37.64
2023-04-16T09:17:34.999Z,38.63
2023-04-16T09:20:06.137Z,39.75
2023-04-16T09:22:33.418Z,40.21
2023-04-16T09:25:00.712Z,37.76
2023-04-16T09:27:28.488Z,38.39
2023-04-16T09:29:55.857Z,39.09
2023-04-16T09:32:27.751Z,38.66
2023-04-16T09:34:56.445Z,39.70
2023-04-16T09:37:25.013Z,38.20
2023-04-16T09:40:04.139Z,35.70
2023-04-16T09:42:37.406Z,37.79
2023-04-16T09:45:06.203Z,37.38
2023-04-16T09:47:45.159Z,36.84
2023-04-16T09:50:18.601Z,34.11
2023-04-16T09:52:50.777Z,36.26
2023-04-16T09:55:24.041Z,37.33
2023-04-16T09:57:59.369Z,35.88
2023-04-16T10:00:26.663Z,36.06
2023-04-16T10:03:05.014Z,34.65
2023-04-16T10:05:32.153Z,38.18
2023-04-16T10:08:03.087Z,36.94
2023-04-16T10:10:30.765Z,36.50
2023-04-16T10:12:58.788Z,36.64
2023-04-16T10:15:26.368Z,37.58
2023-04-16T10:17:54.285Z,35.20
2023-04-16T10:20:22.882Z,34.93
2023-04-16T10:22:50.386Z,36.69
2023-04-16T10:25:18.369Z,36.91
2023-04-16T10:27:48.221Z,35.92
2023-04-16T10:30:16.941Z,36.47
2023-04-16T10:32:45.591Z,37.10
2023-04-16T10:35:19.258Z,37.93
2023-04-16T10:37:46.397Z,38.49
2023-04-16T10:40:27.696Z,33.74
2023-04-16T10:42:59.201Z,31.60
2023-04-16T10:45:37.599Z,32.92
2023-04-16T10:48:08.773Z,33.12
2023-04-16T10:50:39.817Z,34.04
2023-04-16T10:53:27.978Z,32.87
2023-04-16T10:55:58.978Z,33.85
2023-04-16T10:58:34.979Z,37.19
2023-04-16T11:01:07.937Z,35.37
2023-04-16T11:03:35.236Z,36.96
2023-04-16T11:06:13.359Z,34.64
2023-04-16T11:08:53.450Z,36.09
2023-04-16T11:11:22.167Z,36.43
2023-04-16T11:13:50.103Z,37.29
2023-04-16T11:16:17.629Z,36.87
2023-04-16T11:18:51.338Z,34.43
2023-04-16T11:21:20.817Z,34.10
2023-04-16T11:23:53.640Z,36.47
2023-04-16T11:26:28.939Z,35.02
2023-04-16T11:28:57.391Z,34.91
2023-04-16T11:31:24.906Z,35.83
2023-04-16T11:33:52.552Z,34.95
2023-04-16T11:36:19.907Z,36.58
2023-04-16T11:38:47.362Z,36.31
2023-04-16T11:41:20.445Z,36.96
2023-04-16T11:43:47.792Z,35.77
2023-04-16T11:46:26.803Z,35.20
2023-04-16T11:49:07.303Z,33.87
2023-04-16T11:51:40.225Z,34.18
2023-04-16T11:54:11.127Z,35.17
2023-04-16T11:56:45.229Z,36.06
2023-04-16T11:59:14.555Z,35.76
2023-04-16T12:01:45.816Z,36.12
2023-04-16T12:04:14.550Z,36.20
2023-04-16T12:07:03.256Z,34.71
2023-04-16T12:09:30.583Z,34.99
2023-04-16T12:11:57.990Z,35.99
2023-04-16T12:14:25.157Z,36.45
2023-04-16T12:16:52.343Z,35.47
2023-04-16T12:19:19.685Z,36.66
2023-04-16T12:21:48.716Z,36.68
2023-04-16T12:24:20.778Z,36.63
2023-04-16T12:26:52.177Z,37.36
2023-04-16T12:29:21.377Z,36.79
2023-04-16T12:31:50.763Z,35.45
2023-04-16T12:34:19.221Z,36.83
2023-04-16T12:36:48.044Z,36.09
2023-04-16T12:39:16.341Z,35.77
2023-04-16T12:41:44.527Z,33.50
2023-04-16T12:44:18.048Z,33.40
2023-04-16T12:46:45.426Z,34.68
2023-04-16T12:49:13.055Z,35.51
2023-04-16T12:51:40.898Z,35.91
2023-04-16T12:54:08.224Z,37.06
2023-04-16T12:56:36.379Z,35.20
2023-04-16T12:59:03.670Z,37.31
2023-04-16T13:01:31.152Z,34.87
2023-04-16T13:03:58.877Z,35.43
2023-04-16T13:06:26.447Z,34.50
2023-04-16T13:08:54.489Z,36.06
2023-04-16T13:11:21.701Z,34.34
2023-04-16T13:13:48.724Z,35.73
2023-04-16T13:16:16.469Z,36.09
2023-04-16T13:18:44.103Z,35.30
2023-04-16T13:21:11.394Z,35.77
2023-04-16T13:23:38.480Z,35.52
2023-04-16T13:26:05.985Z,35.74
2023-04-16T13:28:33.303Z,36.03
2023-04-16T13:31:02.181Z,33.63
2023-04-16T13:33:30.907Z,33.93
2023-04-16T13:35:58.264Z,35.27
2023-04-16T13:38:25.625Z,36.15
2023-04-16T13:40:52.780Z,36.06
2023-04-16T13:43:19.886Z,36.03
2023-04-16T13:45:47.277Z,35.78
2023-04-16T13:48:14.708Z,35.69
2023-04-16T13:50:41.907Z,35.04
2023-04-16T13:53:09.112Z,35.07
2023-04-16T13:55:36.219Z,35.69
2023-04-16T13:58:03.808Z,35.58
2023-04-16T14:00:31.192Z,35.68
2023-04-16T14:02:58.515Z,35.09
2023-04-16T14:05:27.274Z,35.27
2023-04-16T14:07:54.491Z,35.28
2023-04-16T14:10:21.743Z,35.42
2023-04-16T14:12:49.140Z,34.01
2023-04-16T14:15:16.496Z,34.28
2023-04-16T14:17:47.117Z,35.26
2023-04-16T14:20:14.767Z,35.50
2023-04-16T14:22:44.023Z,35.64
2023-04-16T14:25:11.203Z,35.84
2023-04-16T14:27:38.712Z,34.78
2023-04-16T14:30:07.084Z,35.29
2023-04-16T14:32:34.535Z,35.59
2023-04-16T14:35:01.703Z,35.05
2023-04-16T14:37:32.150Z,35.30
2023-04-16T14:40:00.969Z,35.59
2023-04-16T14:42:28.527Z,35.21
2023-04-16T14:44:55.707Z,34.57
2023-04-16T14:47:24.169Z,35.70
2023-04-16T14:49:51.275Z,35.63
2023-04-16T14:52:18.534Z,34.98
2023-04-16T14:54:45.711Z,35.18
2023-04-16T14:57:13.008Z,36.84
2023-04-16T14:59:40.370Z,35.28
2023-04-16T15:02:08.741Z,36.64
2023-04-16T15:04:36.002Z,36.50
2023-04-16T15:07:03.186Z,36.34
2023-04-16T15:09:30.564Z,36.82
2023-04-16T15:11:58.216Z,36.86
2023-04-16T15:14:25.724Z,36.73
2023-04-16T15:16:53.377Z,36.11
2023-04-16T15:19:20.930Z,36.71
2023-04-16T15:21:48.910Z,37.26
2023-04-16T15:24:16.159Z,36.88
2023-04-16T15:26:43.321Z,36.60
2023-04-16T15:29:11.052Z,36.81
2023-04-16T15:31:38.430Z,36.97
2023-04-16T15:34:05.771Z,36.92
2023-04-16T15:36:33.333Z,36.92
2023-04-16T15:39:00.678Z,37.25
2023-04-16T15:41:31.966Z,36.93
2023-04-16T15:43:59.212Z,37.74
2023-04-16T15:46:26.603Z,37.37
2023-04-16T15:48:53.797Z,37.98
2023-04-16T15:51:21.042Z,37.51
2023-04-16T15:53:49.717Z,37.54
2023-04-16T15:56:17.168Z,37.36
2023-04-16T15:58:44.233Z,37.06
2023-04-16T16:01:13.485Z,37.30
2023-04-16T16:03:41.117Z,38.09
2023-04-16T16:06:09.110Z,38.27
2023-04-16T16:08:37.872Z,38.56
2023-04-16T16:11:05.310Z,38.75
2023-04-16T16:13:32.614Z,38.72
2023-04-16T16:15:59.720Z,38.61
2023-04-16T16:18:26.903Z,38.58
2023-04-16T16:20:57.411Z,39.34
2023-04-16T16:23:25.322Z,39.42
2023-04-16T16:25:52.710Z,39.93
2023-04-16T16:28:20.638Z,40.17
2023-04-16T16:30:48.062Z,40.74
2023-04-16T16:33:15.161Z,40.54
2023-04-16T16:35:42.460Z,40.73
2023-04-16T16:38:09.725Z,41.45
2023-04-16T16:40:39.839Z,40.74
2023-04-16T16:43:06.994Z,40.48
2023-04-16T16:45:34.260Z,40.83
2023-04-16T16:48:03.602Z,41.52
2023-04-16T16:50:33.969Z,41.37
2023-04-16T16:53:01.490Z,41.42
2023-04-16T16:55:28.722Z,41.23
2023-04-16T16:57:57.322Z,41.78
2023-04-16T17:00:24.796Z,42.05
2023-04-16T17:02:52.889Z,42.29
2023-04-16T17:05:20.470Z,42.02
2023-04-16T17:07:48.227Z,42.09
2023-04-16T17:10:20.260Z,42.35
2023-04-16T17:12:49.751Z,42.40
2023-04-16T17:15:20.557Z,42.68
2023-04-16T17:17:49.125Z,42.49
2023-04-16T17:20:16.462Z,43.22
2023-04-16T17:22:43.788Z,43.13
2023-04-16T17:25:11.387Z,43.35
2023-04-16T17:27:41.594Z,43.12
2023-04-16T17:30:09.627Z,43.41
2023-04-16T17:32:37.092Z,43.58
2023-04-16T17:35:04.571Z,43.78
2023-04-16T17:37:33.245Z,43.64
2023-04-16T17:40:00.628Z,43.94
2023-04-16T17:42:27.938Z,43.73
2023-04-16T17:44:55.072Z,43.78
2023-04-16T17:47:22.220Z,43.48
2023-04-16T17:49:52.724Z,42.86
2023-04-16T17:52:21.498Z,43.31
2023-04-16T17:54:49.324Z,43.68
2023-04-16T17:57:16.579Z,43.94
2023-04-16T17:59:43.703Z,44.13
2023-04-16T18:02:11.248Z,43.47
2023-04-16T18:04:38.597Z,43.99
2023-04-16T18:07:06.573Z,43.65
2023-04-16T18:09:34.012Z,43.68
2023-04-16T18:12:01.633Z,43.26
2023-04-16T18:14:29.238Z,43.26
2023-04-16T18:16:58.511Z,43.37
2023-04-16T18:19:25.622Z,43.34
2023-04-16T18:21:52.958Z,43.64
2023-04-16T18:24:21.740Z,44.01
2023-04-16T18:26:49.259Z,43.98
2023-04-16T18:29:17.981Z,44.22
2023-04-16T18:31:45.489Z,44.48
2023-04-16T18:34:12.849Z,44.43
2023-04-16T18:36:39.986Z,44.75
2023-04-16T18:39:08.412Z,45.27
2023-04-16T18:41:36.179Z,45.11
2023-04-16T18:44:03.879Z,44.95
2023-04-16T18:46:31.029Z,45.17
2023-04-16T18:48:59.374Z,45.51
2023-04-16T18:51:27.459Z,45.31
2023-04-16T18:53:54.551Z,45.18
2023-04-16T18:56:21.823Z,44.90
2023-04-16T18:58:49.540Z,45.06
2023-04-16T19:01:18.044Z,45.02
2023-04-16T19:03:45.644Z,45.20
2023-04-16T19:06:12.874Z,44.64
2023-04-16T19:08:41.950Z,45.02
2023-04-16T19:11:08.993Z,45.48
2023-04-16T19:13:36.635Z,45.27
2023-04-16T19:16:06.202Z,45.12
2023-04-16T19:18:33.500Z,45.27
2023-04-16T19:21:01.261Z,45.40
2023-04-16T19:23:29.128Z,45.49
2023-04-16T19:25:57.082Z,45.39
2023-04-16T19:28:25.660Z,45.51
2023-04-16T19:30:53.700Z,45.62
2023-04-16T19:33:21.114Z,45.90
2023-04-16T19:35:48.458Z,46.09
2023-04-16T19:38:15.703Z,46.06
2023-04-16T19:40:46.905Z,46.28
2023-04-16T19:43:14.417Z,46.35
2023-04-16T19:45:46.580Z,46.35
2023-04-16T19:48:14.643Z,46.61
2023-04-16T19:50:42.835Z,46.72
2023-04-16T19:53:12.507Z,46.60
2023-04-16T19:55:40.949Z,46.39
2023-04-16T19:58:09.030Z,46.21
2023-04-16T20:00:38.343Z,46.05
2023-04-16T20:03:06.036Z,45.81
2023-04-16T20:05:33.511Z,45.57
2023-04-16T20:08:01.037Z,46.05
2023-04-16T20:10:28.202Z,45.96
2023-04-16T20:12:55.661Z,45.78
2023-04-16T20:15:22.949Z,46.08
2023-04-16T20:17:50.190Z,46.17
2023-04-16T20:20:17.398Z,46.53
2023-04-16T20:22:44.609Z,46.38
2023-04-16T20:25:14.476Z,46.07
2023-04-16T20:27:41.758Z,45.96
2023-04-16T20:30:09.431Z,46.00
2023-04-16T20:32:36.609Z,45.76
2023-04-16T20:35:05.247Z,45.89
2023-04-16T20:37:32.637Z,45.50
2023-04-16T20:40:00.114Z,45.71
2023-04-16T20:42:27.756Z,45.37
2023-04-16T20:44:56.718Z,44.55
2023-04-16T20:47:24.215Z,44.88
2023-04-16T20:49:53.009Z,45.08
2023-04-16T20:52:21.566Z,44.21
2023-04-16T20:54:52.177Z,44.59
2023-04-16T20:57:19.508Z,44.10
2023-04-16T20:59:46.782Z,43.84
2023-04-16T21:02:14.284Z,43.19
2023-04-16T21:04:41.709Z,44.22
2023-04-16T21:07:09.106Z,43.89
2023-04-16T21:09:36.410Z,43.15
2023-04-16T21:12:03.602Z,42.95
2023-04-16T21:14:31.287Z,43.74
2023-04-16T21:16:58.458Z,42.47
2023-04-16T21:19:25.570Z,42.89
2023-04-16T21:21:52.740Z,43.31
2023-04-16T21:24:19.851Z,42.67
2023-04-16T21:26:46.991Z,42.24
2023-04-16T21:29:14.109Z,43.15
2023-04-16T21:31:41.422Z,42.30
2023-04-16T21:34:08.575Z,42.62
2023-04-16T21:36:35.705Z,42.46
2023-04-16T21:39:02.889Z,41.90
2023-04-16T21:41:32.664Z,42.22
2023-04-16T21:44:00.175Z,42.49
2023-04-16T21:46:27.915Z,42.62
2023-04-16T21:48:55.138Z,42.47
2023-04-16T21:51:29.038Z,42.80
2023-04-16T21:53:59.108Z,41.73
2023-04-16T21:56:26.534Z,42.04
2023-04-16T21:58:53.750Z,42.04
2023-04-16T22:01:21.865Z,41.83
2023-04-16T22:03:52.220Z,41.90
2023-04-16T22:06:20.682Z,42.59
2023-04-16T22:08:50.015Z,42.05
2023-04-16T22:11:17.562Z,41.59
2023-04-16T22:13:46.462Z,42.08
2023-04-16T22:16:13.887Z,41.72
2023-04-16T22:18:42.113Z,42.26
2023-04-16T22:21:09.763Z,41.99
2023-04-16T22:23:37.600Z,42.07
2023-04-16T22:26:05.015Z,41.82
2023-04-16T22:28:32.453Z,42.08
2023-04-16T22:30:59.499Z,41.80
2023-04-16T22:33:30.442Z,41.77
2023-04-16T22:36:00.196Z,41.96
2023-04-16T22:38:27.397Z,42.16
2023-04-16T22:40:54.704Z,42.54
2023-04-16T22:43:21.888Z,42.67
2023-04-16T22:45:49.105Z,42.83
2023-04-16T22:48:16.631Z,42.18
2023-04-16T22:50:51.204Z,42.14
2023-04-16T22:53:18.712Z,42.42
2023-04-16T22:55:45.932Z,42.30
2023-04-16T22:58:13.181Z,42.50
2023-04-16T23:00:40.506Z,42.50
2023-04-16T23:03:10.253Z,42.09
2023-04-16T23:05:37.722Z,42.11
2023-04-16T23:08:04.943Z,42.11
2023-04-16T23:10:32.242Z,42.41
2023-04-16T23:12:59.463Z,42.34
2023-04-16T23:15:26.725Z,42.45
2023-04-16T23:17:54.020Z,42.40
2023-04-16T23:20:21.250Z,42.41
2023-04-16T23:22:48.306Z,42.68
2023-04-16T23:25:15.670Z,42.49
2023-04-16T23:27:42.821Z,42.49
2023-04-16T23:30:10.666Z,42.70
2023-04-16T23:32:38.218Z,43.03
2023-04-16T23:35:05.908Z,43.17
2023-04-16T23:37:33.174Z,42.66
2023-04-16T23:40:00.193Z,43.16
2023-04-16T23:42:27.539Z,42.90
2023-04-16T23:44:54.602Z,42.97
2023-04-16T23:47:21.624Z,43.41
2023-04-16T23:49:48.751Z,43.08
2023-04-16T23:52:15.864Z,43.71
2023-04-16T23:54:43.258Z,43.41
2023-04-16T23:57:10.572Z,43.80
2023-04-16T23:59:37.661Z,43.83
